Argyle, Georgia
Current Conditions -  °F | °C
As of 1:15 PM on Monday 26 Jan 2015 (Local Time) from KHOE Reporting Station
Broken Clouds Broken Clouds  
Wind Chill: 55°   Ceiling: 3700
Heat Index: 55°   Visibility: 10mi
Dew Point: 43°   Wind: 20mph
Humidity: 63%   Direction: 310°NW
Pressure: 29.84"   Gusts: 28mph
Location:  31.07°N, 82.65°W
Report Text: KHOE 261815Z AUTO 31017G24KT 10SM BKN037 BKN042 13/06 A2984 RMK AO2
Loading
Personal Weather Stations






























Interactive Weather Map New forecast layout! Learn more

10-Day Weather Forecast

Advertisements
Track Severe Weather on mobile